createdAt,value
2023-03-01T00:01:06.121Z,17.27
2023-03-01T00:03:32.985Z,11.70
2023-03-01T00:05:59.358Z,10.80
2023-03-01T00:08:26.063Z,13.77
2023-03-01T00:11:24.739Z,13.47
2023-03-01T00:13:52.967Z,11.83
2023-03-01T00:16:21.212Z,16.13
2023-03-01T00:18:47.855Z,13.83
2023-03-01T00:21:14.195Z,12.47
2023-03-01T00:23:41.730Z,11.97
2023-03-01T00:26:09.597Z,12.03
2023-03-01T00:28:36.171Z,13.97
2023-03-01T00:31:06.790Z,14.13
2023-03-01T00:33:33.265Z,13.27
2023-03-01T00:36:00.264Z,10.70
2023-03-01T00:38:26.691Z,12.73
2023-03-01T00:40:53.008Z,14.73
2023-03-01T00:43:19.849Z,11.10
2023-03-01T00:45:46.220Z,12.63
2023-03-01T00:48:12.558Z,13.53
2023-03-01T00:50:38.957Z,13.67
2023-03-01T00:53:06.044Z,14.07
2023-03-01T00:55:32.427Z,14.83
2023-03-01T00:57:59.788Z,12.43
2023-03-01T01:00:28.510Z,14.43
2023-03-01T01:02:54.954Z,17.40
2023-03-01T01:05:21.891Z,15.93
2023-03-01T01:07:49.014Z,12.77
2023-03-01T01:10:18.008Z,14.73
2023-03-01T01:12:45.532Z,16.33
2023-03-01T01:15:13.989Z,12.87
2023-03-01T01:17:40.322Z,15.10
2023-03-01T01:20:07.191Z,20.17
2023-03-01T01:22:33.568Z,13.53
2023-03-01T01:24:59.879Z,14.77
2023-03-01T01:27:26.265Z,15.87
2023-03-01T01:29:53.802Z,16.23
2023-03-01T01:32:20.295Z,16.60
2023-03-01T01:34:47.577Z,16.90
2023-03-01T01:37:13.969Z,17.60
2023-03-01T01:39:40.283Z,17.67
2023-03-01T01:42:06.651Z,19.27
2023-03-01T01:44:34.469Z,19.33
2023-03-01T01:47:15.740Z,15.17
2023-03-01T01:49:44.180Z,15.93
2023-03-01T01:52:21.812Z,14.47
2023-03-01T01:54:56.967Z,14.23
2023-03-01T01:57:26.945Z,17.77
2023-03-01T01:59:55.660Z,15.90
2023-03-01T02:02:23.272Z,16.60
2023-03-01T02:04:50.787Z,16.00
2023-03-01T02:07:18.930Z,21.57
2023-03-01T02:09:46.801Z,15.90
2023-03-01T02:12:13.748Z,17.83
2023-03-01T02:14:40.147Z,16.07
2023-03-01T02:17:06.490Z,15.40
2023-03-01T02:19:35.916Z,18.50
2023-03-01T02:22:08.469Z,19.30
2023-03-01T02:24:47.068Z,21.70
2023-03-01T02:27:13.637Z,20.40
2023-03-01T02:29:40.012Z,16.00
2023-03-01T02:32:06.846Z,17.47
2023-03-01T02:34:33.781Z,19.47
2023-03-01T02:37:13.553Z,17.67
2023-03-01T02:39:48.857Z,17.60
2023-03-01T02:42:22.140Z,18.07
2023-03-01T02:44:50.003Z,17.13
2023-03-01T02:47:16.318Z,16.60
2023-03-01T02:49:42.767Z,17.60
2023-03-01T02:52:24.492Z,20.97
2023-03-01T02:54:53.530Z,18.27
2023-03-01T02:57:20.483Z,16.20
2023-03-01T02:59:46.800Z,18.87
2023-03-01T03:02:37.326Z,17.13
2023-03-01T03:05:12.800Z,20.43
2023-03-01T03:07:40.969Z,20.80
2023-03-01T03:10:08.485Z,16.13
2023-03-01T03:12:34.823Z,16.10
2023-03-01T03:15:01.124Z,14.87
2023-03-01T03:17:27.415Z,19.83
2023-03-01T03:19:53.741Z,21.80
2023-03-01T03:22:20.043Z,17.90
2023-03-01T03:24:46.433Z,16.23
2023-03-01T03:27:12.748Z,20.23
2023-03-01T03:29:39.087Z,21.23
2023-03-01T03:32:05.444Z,18.63
2023-03-01T03:34:31.870Z,24.97
2023-03-01T03:37:00.357Z,23.20
2023-03-01T03:39:27.812Z,19.93
2023-03-01T03:41:54.555Z,20.60
2023-03-01T03:44:22.434Z,21.20
2023-03-01T03:46:48.753Z,18.83
2023-03-01T03:49:15.057Z,24.57
2023-03-01T03:51:41.354Z,20.33
2023-03-01T03:54:07.750Z,24.03
2023-03-01T03:56:34.355Z,20.23
2023-03-01T03:59:01.797Z,19.10
2023-03-01T04:01:28.274Z,22.40
2023-03-01T04:03:55.641Z,24.40
2023-03-01T04:06:22.283Z,21.57
2023-03-01T04:08:51.979Z,20.47
2023-03-01T04:11:27.184Z,23.27
2023-03-01T04:13:54.393Z,19.60
2023-03-01T04:16:20.904Z,19.87
2023-03-01T04:18:47.226Z,19.40
2023-03-01T04:21:13.573Z,21.40
2023-03-01T04:23:41.711Z,23.23
2023-03-01T04:26:08.262Z,22.10
2023-03-01T04:28:36.807Z,27.73
2023-03-01T04:31:13.673Z,23.47
2023-03-01T04:33:44.423Z,28.47
2023-03-01T04:36:11.672Z,26.70
2023-03-01T04:38:38.440Z,26.77
2023-03-01T04:41:05.666Z,24.20
2023-03-01T04:43:32.031Z,26.17
2023-03-01T04:46:05.307Z,27.73
2023-03-01T04:48:32.411Z,28.00
2023-03-01T04:50:59.806Z,26.93
2023-03-01T04:53:26.389Z,27.07
2023-03-01T04:55:52.746Z,24.90
2023-03-01T04:58:19.104Z,27.77
2023-03-01T05:00:45.490Z,26.67
2023-03-01T05:03:11.820Z,28.23
2023-03-01T05:05:39.248Z,26.17
2023-03-01T05:08:07.464Z,29.10
2023-03-01T05:10:35.995Z,30.87
2023-03-01T05:13:02.897Z,27.97
2023-03-01T05:15:30.893Z,27.60
2023-03-01T05:17:59.679Z,27.80
2023-03-01T05:20:27.098Z,27.67
2023-03-01T05:22:55.610Z,26.20
2023-03-01T05:25:22.447Z,27.50
2023-03-01T05:27:49.292Z,28.93
2023-03-01T05:30:15.872Z,29.57
2023-03-01T05:32:46.102Z,27.07
2023-03-01T05:35:16.571Z,26.03
2023-03-01T05:37:45.239Z,28.67
2023-03-01T05:40:16.476Z,26.90
2023-03-01T05:42:49.202Z,27.57
2023-03-01T05:45:16.183Z,34.50
2023-03-01T05:47:44.701Z,37.43
2023-03-01T05:50:19.511Z,34.20
2023-03-01T05:53:09.001Z,34.60
2023-03-01T05:55:36.358Z,25.97
2023-03-01T05:58:04.184Z,29.40
2023-03-01T06:00:31.106Z,25.47
2023-03-01T06:02:57.972Z,19.20
2023-03-01T06:05:24.459Z,23.83
2023-03-01T06:07:51.280Z,27.33
2023-03-01T06:10:18.360Z,23.13
2023-03-01T06:12:44.821Z,22.33
2023-03-01T06:15:12.366Z,23.47
2023-03-01T06:17:39.689Z,21.53
2023-03-01T06:20:06.964Z,22.97
2023-03-01T06:22:34.490Z,20.67
2023-03-01T06:25:00.812Z,25.77
2023-03-01T06:27:27.124Z,21.50
2023-03-01T06:29:54.287Z,15.00
2023-03-01T06:32:20.754Z,21.13
2023-03-01T06:34:47.212Z,20.63
2023-03-01T06:37:13.516Z,14.57
2023-03-01T06:39:40.111Z,14.90
2023-03-01T06:42:06.518Z,16.53
2023-03-01T06:44:32.861Z,15.77
2023-03-01T06:46:59.217Z,17.23
2023-03-01T06:49:25.636Z,17.37
2023-03-01T06:51:51.964Z,20.67
2023-03-01T06:54:18.894Z,17.07
2023-03-01T06:56:47.987Z,19.77
2023-03-01T06:59:14.557Z,19.97
2023-03-01T07:01:40.987Z,20.63
2023-03-01T07:04:07.534Z,22.10
2023-03-01T07:06:34.100Z,17.30
2023-03-01T07:09:01.459Z,18.10
2023-03-01T07:11:27.798Z,19.77
2023-03-01T07:13:54.119Z,18.27
2023-03-01T07:16:21.691Z,17.47
2023-03-01T07:18:48.034Z,19.17
2023-03-01T07:21:15.892Z,19.80
2023-03-01T07:23:42.353Z,20.60
2023-03-01T07:26:08.835Z,21.13
2023-03-01T07:28:40.030Z,19.13
2023-03-01T07:31:07.219Z,17.23
2023-03-01T07:33:33.644Z,20.67
2023-03-01T07:36:00.869Z,22.30
2023-03-01T07:38:27.687Z,20.40
2023-03-01T07:40:54.158Z,25.97
2023-03-01T07:43:21.608Z,30.07
2023-03-01T07:45:47.987Z,25.40
2023-03-01T07:48:14.337Z,24.93
2023-03-01T07:50:40.649Z,31.97
2023-03-01T07:53:06.946Z,38.93
2023-03-01T07:55:33.237Z,45.43
2023-03-01T07:57:59.645Z,42.07
2023-03-01T08:00:26.037Z,38.83
2023-03-01T08:02:52.414Z,49.27
2023-03-01T08:05:18.791Z,54.67
2023-03-01T08:07:45.244Z,31.37
2023-03-01T08:10:11.822Z,38.33
2023-03-01T08:12:38.244Z,34.00
2023-03-01T08:15:04.770Z,56.67
2023-03-01T08:17:31.085Z,35.00
2023-03-01T08:19:57.409Z,62.00
2023-03-01T08:22:23.776Z,66.00
2023-03-01T08:24:50.089Z,44.70
2023-03-01T08:27:17.004Z,61.07
2023-03-01T08:29:43.570Z,54.53
2023-03-01T08:32:10.014Z,58.43
2023-03-01T08:34:36.632Z,58.73
2023-03-01T08:37:03.141Z,61.43
2023-03-01T08:39:29.496Z,56.93
2023-03-01T08:41:55.964Z,59.87
2023-03-01T08:44:22.363Z,60.40
2023-03-01T08:46:50.935Z,55.73
2023-03-01T08:49:19.410Z,59.83
2023-03-01T08:51:46.099Z,62.27
2023-03-01T08:54:13.971Z,62.87
2023-03-01T08:56:40.430Z,54.57
2023-03-01T08:59:06.796Z,53.70
2023-03-01T09:01:33.126Z,52.63
2023-03-01T09:03:59.764Z,51.30
2023-03-01T09:06:26.297Z,52.10
2023-03-01T09:08:52.878Z,52.60
2023-03-01T09:11:21.238Z,48.03
2023-03-01T09:13:48.294Z,52.90
2023-03-01T09:16:15.735Z,46.37
2023-03-01T09:18:42.281Z,47.43
2023-03-01T09:21:08.578Z,51.13
2023-03-01T09:23:37.449Z,47.23
2023-03-01T09:26:04.121Z,48.10
2023-03-01T09:28:30.574Z,56.93
2023-03-01T09:31:00.743Z,52.67
2023-03-01T09:33:27.597Z,51.23
2023-03-01T09:36:00.554Z,67.27
2023-03-01T09:38:27.195Z,58.83
2023-03-01T09:40:53.751Z,60.57
2023-03-01T09:43:40.602Z,63.53
2023-03-01T09:46:08.989Z,57.77
2023-03-01T09:48:41.246Z,48.57
2023-03-01T09:51:09.974Z,62.43
2023-03-01T09:53:36.380Z,63.67
2023-03-01T09:56:02.665Z,60.77
2023-03-01T09:58:47.846Z,58.13
2023-03-01T10:01:33.949Z,49.73
2023-03-01T10:04:00.281Z,58.87
2023-03-01T10:06:34.828Z,48.40
2023-03-01T10:09:16.487Z,48.57
2023-03-01T10:11:46.082Z,46.50
2023-03-01T10:14:30.491Z,50.50
2023-03-01T10:16:59.988Z,50.60
2023-03-01T10:19:39.702Z,49.37
2023-03-01T10:22:24.078Z,48.17
2023-03-01T10:24:54.025Z,55.83
2023-03-01T10:27:24.800Z,54.97
2023-03-01T10:29:54.196Z,58.80
2023-03-01T10:32:25.104Z,66.50
2023-03-01T10:34:51.696Z,61.57
2023-03-01T10:37:20.253Z,56.17
2023-03-01T10:39:56.654Z,55.33
2023-03-01T10:42:26.885Z,55.57
2023-03-01T10:44:53.333Z,46.47
2023-03-01T10:47:24.377Z,52.00
2023-03-01T10:50:01.958Z,41.90
2023-03-01T10:52:37.384Z,39.33
2023-03-01T10:55:22.581Z,36.60
2023-03-01T10:57:48.917Z,36.20
2023-03-01T11:00:16.715Z,31.60
2023-03-01T11:02:43.074Z,27.70
2023-03-01T11:05:16.175Z,27.00
2023-03-01T11:07:56.106Z,24.27
2023-03-01T11:10:24.639Z,24.97
2023-03-01T11:12:52.071Z,25.87
2023-03-01T11:15:26.656Z,23.10
2023-03-01T11:18:03.122Z,20.07
2023-03-01T11:20:39.736Z,21.53
2023-03-01T11:23:10.090Z,20.90
2023-03-01T11:25:37.584Z,21.17
2023-03-01T11:28:05.507Z,16.13
2023-03-01T11:30:34.974Z,16.07
2023-03-01T11:33:04.222Z,14.73
2023-03-01T11:35:31.142Z,12.27
2023-03-01T11:38:05.944Z,14.57
2023-03-01T11:40:36.143Z,15.97
2023-03-01T11:43:02.605Z,15.67
2023-03-01T11:45:32.924Z,12.00
2023-03-01T11:48:18.440Z,11.43
2023-03-01T11:50:49.273Z,13.73
2023-03-01T11:53:37.462Z,14.67
2023-03-01T11:56:06.671Z,12.43
2023-03-01T11:58:39.893Z,14.20
2023-03-01T12:01:15.173Z,10.87
2023-03-01T12:04:00.309Z,13.47
2023-03-01T12:06:26.740Z,7.97
2023-03-01T12:09:19.110Z,12.90
2023-03-01T12:11:49.418Z,11.47
2023-03-01T12:14:18.875Z,10.07
2023-03-01T12:16:45.219Z,10.47
2023-03-01T12:19:30.558Z,10.27
2023-03-01T12:22:09.059Z,9.47
2023-03-01T12:24:39.849Z,12.40
2023-03-01T12:27:13.941Z,10.23
2023-03-01T12:30:03.418Z,11.87
2023-03-01T12:32:48.176Z,11.70
2023-03-01T12:35:14.612Z,11.73
2023-03-01T12:38:07.480Z,12.20
2023-03-01T12:40:36.570Z,12.50
2023-03-01T12:43:16.616Z,12.80
2023-03-01T12:45:46.020Z,10.77
2023-03-01T12:48:21.241Z,14.67
2023-03-01T12:50:53.199Z,16.50
2023-03-01T12:53:24.872Z,13.97
2023-03-01T12:55:52.776Z,13.17
2023-03-01T12:58:26.300Z,13.60
2023-03-01T13:01:15.407Z,12.77
2023-03-01T13:03:41.840Z,11.73
2023-03-01T13:06:38.166Z,12.43
2023-03-01T13:09:29.238Z,14.43
2023-03-01T13:11:55.551Z,12.30
2023-03-01T13:14:22.151Z,16.13
2023-03-01T13:16:50.287Z,13.07
2023-03-01T13:19:18.144Z,15.00
2023-03-01T13:21:46.059Z,15.07
2023-03-01T13:24:29.327Z,14.10
2023-03-01T13:27:07.779Z,13.40
2023-03-01T13:29:50.613Z,14.33
2023-03-01T13:32:34.370Z,12.00
2023-03-01T13:35:20.136Z,14.07
2023-03-01T13:37:47.129Z,11.07
2023-03-01T13:40:17.612Z,14.57
2023-03-01T13:42:56.141Z,17.10
2023-03-01T13:45:43.979Z,14.57
2023-03-01T13:48:36.924Z,14.90
2023-03-01T13:51:04.326Z,14.97
2023-03-01T13:53:32.493Z,15.07
2023-03-01T13:56:01.395Z,12.93
2023-03-01T13:58:29.153Z,11.87
2023-03-01T14:01:05.831Z,12.03
2023-03-01T14:03:33.990Z,10.33
2023-03-01T14:06:13.149Z,8.83
2023-03-01T14:08:42.966Z,11.57
2023-03-01T14:11:28.244Z,11.67
2023-03-01T14:14:06.891Z,10.07
2023-03-01T14:16:36.169Z,10.57
2023-03-01T14:19:33.166Z,9.63
2023-03-01T14:22:23.588Z,8.93
2023-03-01T14:24:50.230Z,10.13
2023-03-01T14:27:18.061Z,8.90
2023-03-01T14:29:45.475Z,10.23
2023-03-01T14:32:21.003Z,9.80
2023-03-01T14:34:50.020Z,10.80
2023-03-01T14:37:27.373Z,8.30
2023-03-01T14:39:54.791Z,11.00
2023-03-01T14:42:22.646Z,9.43
2023-03-01T14:44:50.433Z,8.60
2023-03-01T14:47:26.947Z,13.03
2023-03-01T14:49:57.188Z,12.00
2023-03-01T14:52:29.206Z,11.03
2023-03-01T14:54:55.759Z,10.97
2023-03-01T14:57:24.059Z,11.33
2023-03-01T14:59:55.454Z,11.00
2023-03-01T15:02:24.108Z,12.30
2023-03-01T15:04:52.431Z,10.67
2023-03-01T15:07:19.433Z,12.43
2023-03-01T15:09:46.202Z,11.73
2023-03-01T15:12:31.193Z,11.83
2023-03-01T15:15:04.340Z,12.93
2023-03-01T15:17:31.265Z,12.03
2023-03-01T15:19:57.707Z,9.33
2023-03-01T15:22:25.594Z,13.27
2023-03-01T15:24:52.031Z,11.60
2023-03-01T15:27:20.177Z,11.60
2023-03-01T15:29:54.545Z,10.27
2023-03-01T15:32:23.829Z,12.00
2023-03-01T15:34:50.579Z,10.93
2023-03-01T15:37:35.874Z,9.00
2023-03-01T15:40:02.436Z,8.10
2023-03-01T15:42:28.911Z,9.10
2023-03-01T15:45:15.415Z,8.37
2023-03-01T15:47:49.247Z,11.70
2023-03-01T15:50:18.551Z,8.63
2023-03-01T15:52:45.078Z,9.93
2023-03-01T15:55:37.415Z,8.63
2023-03-01T15:58:07.558Z,13.67
2023-03-01T16:00:34.196Z,12.97
2023-03-01T16:03:00.600Z,9.87
2023-03-01T16:05:29.003Z,8.03
2023-03-01T16:07:55.466Z,9.00
2023-03-01T16:10:23.232Z,9.43
2023-03-01T16:12:50.661Z,9.13
2023-03-01T16:15:25.023Z,7.87
2023-03-01T16:17:51.483Z,7.53
2023-03-01T16:20:28.075Z,12.70
2023-03-01T16:22:55.202Z,8.83
2023-03-01T16:25:21.860Z,7.87
2023-03-01T16:27:49.318Z,10.10
2023-03-01T16:30:16.774Z,10.37
2023-03-01T16:32:44.642Z,8.17
2023-03-01T16:35:12.173Z,7.97
2023-03-01T16:37:38.961Z,9.37
2023-03-01T16:40:06.010Z,8.83
2023-03-01T16:42:35.921Z,9.47
2023-03-01T16:45:09.159Z,9.00
2023-03-01T16:47:40.383Z,9.97
2023-03-01T16:50:06.864Z,10.63
2023-03-01T16:52:34.251Z,9.13
2023-03-01T16:55:04.796Z,7.97
2023-03-01T16:57:31.432Z,6.97
2023-03-01T16:59:57.754Z,10.50
2023-03-01T17:02:24.155Z,7.87
2023-03-01T17:04:54.228Z,9.00
2023-03-01T17:07:20.554Z,9.60
2023-03-01T17:09:47.052Z,12.83
2023-03-01T17:12:13.996Z,7.43
2023-03-01T17:14:42.245Z,7.87
2023-03-01T17:17:10.096Z,8.33
2023-03-01T17:19:40.663Z,9.90
2023-03-01T17:22:18.360Z,7.33
2023-03-01T17:24:44.820Z,10.43
2023-03-01T17:27:12.527Z,8.37
2023-03-01T17:33:04.691Z,9.00
2023-03-01T17:35:31.178Z,9.80
2023-03-01T17:37:57.508Z,8.60
2023-03-01T17:40:23.868Z,7.97
2023-03-01T17:42:50.120Z,9.43
2023-03-01T17:45:16.498Z,7.97
2023-03-01T17:47:42.898Z,9.20
2023-03-01T17:50:09.511Z,10.20
2023-03-01T17:52:35.852Z,8.10
2023-03-01T17:55:02.233Z,9.60
2023-03-01T17:57:28.546Z,8.00
2023-03-01T17:59:55.059Z,9.10
2023-03-01T18:02:21.764Z,10.77
2023-03-01T18:04:48.127Z,7.50
2023-03-01T18:07:14.453Z,11.63
2023-03-01T18:09:40.769Z,10.93
2023-03-01T18:12:07.076Z,10.83
2023-03-01T18:14:34.212Z,10.83
2023-03-01T18:17:03.325Z,12.63
2023-03-01T18:19:29.806Z,9.57
2023-03-01T18:21:56.359Z,12.50
2023-03-01T18:24:22.767Z,11.30
2023-03-01T18:26:49.320Z,10.53
2023-03-01T18:29:15.663Z,11.67
2023-03-01T18:31:42.010Z,9.60
2023-03-01T18:34:11.181Z,9.87
2023-03-01T18:36:38.351Z,12.60
2023-03-01T18:39:07.108Z,10.10
2023-03-01T18:41:34.029Z,10.93
2023-03-01T18:44:01.303Z,9.27
2023-03-01T18:46:27.986Z,12.10
2023-03-01T18:48:54.593Z,10.13
2023-03-01T18:51:25.508Z,11.90
2023-03-01T18:53:51.920Z,11.67
2023-03-01T18:56:18.274Z,12.33
2023-03-01T18:58:45.608Z,10.93
2023-03-01T19:01:22.199Z,9.47
2023-03-01T19:03:48.990Z,13.67
2023-03-01T19:06:15.497Z,12.57
2023-03-01T19:08:44.353Z,12.83
2023-03-01T19:11:11.609Z,10.77
2023-03-01T19:13:39.348Z,14.37
2023-03-01T19:16:10.833Z,15.03
2023-03-01T19:18:39.958Z,10.33
2023-03-01T19:21:07.189Z,13.13
2023-03-01T19:23:36.541Z,15.23
2023-03-01T19:26:03.794Z,13.53
2023-03-01T19:28:30.256Z,12.47
2023-03-01T19:31:01.003Z,14.60
2023-03-01T19:33:28.489Z,9.70
2023-03-01T19:35:56.846Z,12.77
2023-03-01T19:38:23.527Z,10.50
2023-03-01T19:40:49.913Z,12.27
2023-03-01T19:43:16.222Z,14.83
2023-03-01T19:45:42.542Z,12.60
2023-03-01T19:48:08.951Z,17.07
2023-03-01T19:50:38.502Z,14.73
2023-03-01T19:53:05.038Z,11.57
2023-03-01T19:55:32.293Z,10.80
2023-03-01T19:57:58.669Z,13.50
2023-03-01T20:00:25.178Z,15.60
2023-03-01T20:02:51.568Z,15.43
2023-03-01T20:05:18.037Z,10.90
2023-03-01T20:07:44.677Z,14.57
2023-03-01T20:10:12.119Z,12.80
2023-03-01T20:12:38.574Z,15.27
2023-03-01T20:15:05.106Z,13.33
2023-03-01T20:17:31.466Z,14.93
2023-03-01T20:19:57.821Z,12.40
2023-03-01T20:22:24.247Z,15.20
2023-03-01T20:24:50.612Z,12.33
2023-03-01T20:27:16.996Z,13.20
2023-03-01T20:29:43.374Z,13.43
2023-03-01T20:32:09.977Z,14.13
2023-03-01T20:34:36.999Z,14.90
2023-03-01T20:37:03.723Z,15.27
2023-03-01T20:39:30.138Z,12.97
2023-03-01T20:41:56.401Z,13.23
2023-03-01T20:44:22.710Z,16.10
2023-03-01T20:46:50.732Z,14.63
2023-03-01T20:49:17.111Z,10.93
2023-03-01T20:51:44.287Z,10.53
2023-03-01T20:54:10.760Z,10.77
2023-03-01T20:56:37.814Z,17.33
2023-03-01T20:59:05.062Z,14.47
2023-03-01T21:01:31.414Z,14.93
2023-03-01T21:03:57.991Z,15.30
2023-03-01T21:06:24.409Z,14.77
2023-03-01T21:08:51.810Z,13.80
2023-03-01T21:11:19.392Z,15.40
2023-03-01T21:13:45.860Z,13.43
2023-03-01T21:16:15.593Z,15.17
2023-03-01T21:18:41.999Z,15.00
2023-03-01T21:21:09.601Z,15.90
2023-03-01T21:23:36.541Z,14.60
2023-03-01T21:26:04.365Z,15.90
2023-03-01T21:28:33.243Z,13.50
2023-03-01T21:31:07.786Z,16.20
2023-03-01T21:33:34.806Z,16.07
2023-03-01T21:36:04.200Z,12.70
2023-03-01T21:38:31.647Z,16.40
2023-03-01T21:40:58.152Z,14.13
2023-03-01T21:43:25.038Z,14.23
2023-03-01T21:45:51.555Z,15.57
2023-03-01T21:48:17.910Z,14.77
2023-03-01T21:50:44.237Z,16.90
2023-03-01T21:53:10.557Z,14.53
2023-03-01T21:55:36.873Z,14.90
2023-03-01T21:58:03.395Z,13.53
2023-03-01T22:00:29.718Z,14.67
2023-03-01T22:02:58.157Z,14.40
2023-03-01T22:05:24.656Z,16.67
2023-03-01T22:07:50.972Z,16.13
2023-03-01T22:10:26.876Z,14.70
2023-03-01T22:12:54.454Z,19.63
2023-03-01T22:15:20.856Z,17.67
2023-03-01T22:17:47.365Z,18.17
2023-03-01T22:20:13.948Z,17.17
2023-03-01T22:22:40.334Z,17.93
2023-03-01T22:25:06.875Z,16.57
2023-03-01T22:27:33.286Z,13.87
2023-03-01T22:29:59.588Z,14.40
2023-03-01T22:32:26.037Z,18.50
2023-03-01T22:34:52.490Z,19.70
2023-03-01T22:37:18.823Z,19.40
2023-03-01T22:39:45.119Z,19.17
2023-03-01T22:42:11.466Z,17.13
2023-03-01T22:44:37.798Z,16.80
2023-03-01T22:47:04.149Z,17.07
2023-03-01T22:49:30.482Z,19.17
2023-03-01T22:51:56.861Z,19.93
2023-03-01T22:54:23.247Z,20.33
2023-03-01T22:56:49.896Z,20.40
2023-03-01T22:59:18.954Z,19.50
2023-03-01T23:01:47.586Z,26.70
2023-03-01T23:04:14.783Z,21.00
2023-03-01T23:06:50.632Z,24.60
2023-03-01T23:09:18.649Z,21.53
2023-03-01T23:11:45.145Z,26.20
2023-03-01T23:14:12.413Z,26.87
2023-03-01T23:16:38.874Z,22.47
2023-03-01T23:19:05.210Z,28.10
2023-03-01T23:21:32.699Z,28.93
2023-03-01T23:23:59.162Z,28.60
2023-03-01T23:26:28.435Z,26.13
2023-03-01T23:28:55.891Z,28.00
2023-03-01T23:31:22.489Z,29.40
2023-03-01T23:33:49.131Z,28.47
2023-03-01T23:36:22.637Z,34.50
2023-03-01T23:38:50.163Z,31.77
2023-03-01T23:41:17.685Z,35.00
2023-03-01T23:43:46.017Z,37.67
2023-03-01T23:46:14.339Z,32.80
2023-03-01T23:48:44.273Z,36.30
2023-03-01T23:51:10.760Z,35.63
2023-03-01T23:53:39.453Z,36.53
2023-03-01T23:56:06.486Z,34.20
2023-03-01T23:58:32.928Z,38.93
